Lookout Ridge

The Lookout Station measures temperature, relative humidity, total snow depth, 24 hour snowfall, and snow water equivalent on Lookout Ridge (9000 ft). Jump to table bottom
Date Time Air Temp Deg F RH % Total Height Snow(in) New Snow 24hr(in) SWE Hourly (in)
02/24 23:00 4.2 85.1 52.0 1.0 0
02/24 22:00 4.7 86.4 52.3 1.0 0
02/24 21:00 5.4 87.4 52.5 0.7 0
02/24 20:00 3.3 88.2 52.6 0.9 0
02/24 19:00 4.3 84.6 52.4 0.6 0
02/24 18:00 8.6 86.9 52.1 0.3 .03
02/24 17:00 10.8 86.0 50.7 -0.0 .01
02/24 16:00 12.6 79.7 51.4 2.1 0
02/24 15:00 15.7 78.6 50.8 1.0 .01
02/24 14:00 14.9 76.9 50.7 1.8 0
02/24 13:00 16.7 73.3 50.6 1.6 0
02/24 12:00 13.4 79.0 50.7 1.7 0
02/24 11:00 16.1 80.0 50.9 1.4 0
02/24 10:00 11.3 80.6 51.2 1.6 0
02/24 09:00 11.0 82.6 50.9 1.4 0
02/24 08:00 5.5 86.6 51.2 1.5 0
02/24 07:00 3.7 86.5 51.3 1.4 0
02/24 06:00 3.3 86.1 51.4 1.5 0
02/24 05:00 4.0 86.0 51.5 1.5 0
02/24 04:00 5.8 87.3 51.5 1.5 0
02/24 03:00 6.1 87.8 51.5 1.4 .01
02/24 02:00 6.4 87.4 51.5 1.4 0
02/24 01:00 7.1 87.8 51.6 1.4 0
02/24 00:00 7.7 88.2 51.6 1.4 0
02/23 23:00 7.7 87.2 51.7 1.4 0
02/23 22:00 8.1 87.5 51.8 1.4 .01
02/23 21:00 8.8 87.8 51.8 1.3 0
02/23 20:00 9.0 87.5 51.7 1.3 0
02/23 19:00 9.4 87.6 51.8 1.3 0
02/23 18:00 10.7 87.0 51.5 0.7 .02
02/23 17:00 12.5 86.7 50.5 0.0 0
02/23 16:00 14.7 83.3 50.3 1.1 0
02/23 15:00 13.5 84.6 50.6 1.2 0
02/23 14:00 13.8 80.7 50.7 1.3 0
02/23 13:00 15.0 83.9 50.7 1.3 0
02/23 12:00 16.3 80.3 50.6 0.8 0
02/23 11:00 14.5 79.8 50.7 1.1 0
02/23 10:00 13.8 81.7 50.6 0.8 0
02/23 09:00 12.6 85.8 50.6 0.8 0
02/23 08:00 10.9 87.4 50.7 0.7 0
02/23 07:00 10.2 88.5 50.7 0.8 0
02/23 06:00 10.7 88.7 50.9 0.7 0
02/23 05:00 10.6 88.4 51.0 0.8 0
02/23 04:00 10.6 89.1 51.0 0.9 0
02/23 03:00 9.9 89.9 51.2 0.9 0
02/23 02:00 9.5 88.6 51.2 0.4 0
02/23 01:00 9.4 89.7 51.3 0.8 0
02/23 00:00 9.3 89.0 51.4 0.8 0
.